»·PEaware :: N2RF KPSP-KLAX

N2RF :: KPSP-KLAX

FLIGHT INFORMATION

Flight Status: Arrived
Operator: Privately registered:
United States
More flights under this callsign
Pilot: Max W. (2591)
Aircraft: SOCATA TBM-900
(TBM9)
More flights by this aircraft type
Origin: KPSP Palm Springs Intl
United States
Destination: KLAX Los Angeles Intl
United States
More flights between these airports :: More routes between these airports
Route: +CATH1 PSP V388 PDZ LAHAB
File this flight plan on PilotEdge
Remarks: GOOD EVENING GOLDSY. PLEASURE TO HAVE THE BEST CANADAIN CONTROLLER IN THE BIZ ON TONIGHT!
Altitude:
(Current/Filed)
16,000ft
Speed:
(Current/Filed)
290kts
Departed: 24-Sep-19 04:39 PM
Arrived: 24-Sep-19 05:10 PM
Distance/Time
Traveled:
94nm/0:31
Distance/Time
To Go:
Arrived

Flight Plot

Page will automatically refresh every two minutes.

Flight plan parsing failed; only flown route is shown


Map Options




Map Legend


Flown Route
Filed Route
Departure Airport
Arrival Airport
Navaid (VOR, NDB)
Fix

Horizontal Profiles

Position Reports

Time Latitude Longitude Heading Altitude Ground
Speed
24-Sep-19 16:20 33.824373 -116.498440 50 480ft 0kts
24-Sep-19 16:21 33.824373 -116.498440 50 480ft 0kts
24-Sep-19 16:22 33.824373 -116.498440 50 480ft 0kts
24-Sep-19 16:23 33.824373 -116.498440 50 480ft 0kts
24-Sep-19 16:24 33.824373 -116.498440 50 480ft 0kts
24-Sep-19 16:25 33.824373 -116.498440 50 480ft 0kts
24-Sep-19 16:26 33.824373 -116.498440 50 480ft 0kts
24-Sep-19 16:27 33.824373 -116.498440 50 480ft 0kts
24-Sep-19 16:28 33.824373 -116.498440 50 480ft 0kts
24-Sep-19 16:29 33.824373 -116.498440 50 480ft 0kts
24-Sep-19 16:30 33.824373 -116.498440 50 480ft 0kts
24-Sep-19 16:31 33.824928 -116.499155 237 480ft 0kts
24-Sep-19 16:32 33.824928 -116.499155 237 480ft 0kts
24-Sep-19 16:33 33.824928 -116.499155 237 480ft 0kts
24-Sep-19 16:34 33.825229 -116.499820 321 480ft 27kts
24-Sep-19 16:35 33.835383 -116.509051 260 480ft 15kts
24-Sep-19 16:36 33.834884 -116.509417 140 480ft 0kts
24-Sep-19 16:37 33.834884 -116.509417 140 480ft 0kts
24-Sep-19 16:38 33.832897 -116.507653 144 480ft 83kts
24-Sep-19 16:39 33.812319 -116.468916 103 1604ft 189kts
24-Sep-19 16:40 33.811860 -116.419321 54 5083ft 111kts
24-Sep-19 16:41 33.829871 -116.383559 56 7701ft 129kts
24-Sep-19 16:42 33.847520 -116.347855 42 10619ft 128kts
24-Sep-19 16:43 33.872254 -116.381793 292 12057ft 228kts
24-Sep-19 16:44 33.890763 -116.466175 289 12006ft 277kts
24-Sep-19 16:45 33.910134 -116.557405 289 12000ft 282kts
24-Sep-19 16:46 33.929578 -116.649361 289 11999ft 283kts
24-Sep-19 16:47 33.948195 -116.739090 283 12001ft 286kts
24-Sep-19 16:48 33.945467 -116.834880 272 12016ft 278kts
24-Sep-19 16:49 33.942254 -116.928302 272 12031ft 280kts
24-Sep-19 16:50 33.938919 -117.023073 271 12032ft 284kts
24-Sep-19 16:51 33.935463 -117.119177 271 12033ft 289kts
24-Sep-19 16:52 33.931549 -117.216444 270 12022ft 291kts
24-Sep-19 16:53 33.927291 -117.314375 270 12009ft 292kts
24-Sep-19 16:54 33.923163 -117.412262 271 10815ft 279kts
24-Sep-19 16:55 33.919434 -117.502703 272 9614ft 262kts
24-Sep-19 16:56 33.919652 -117.596712 276 8375ft 291kts
24-Sep-19 16:57 33.921515 -117.692706 274 7064ft 281kts
24-Sep-19 16:58 33.923243 -117.785997 273 5820ft 275kts
24-Sep-19 16:59 33.924829 -117.876915 272 4617ft 268kts
24-Sep-19 17:00 33.939317 -117.962131 291 3990ft 252kts
24-Sep-19 17:01 33.960104 -118.025114 291 3998ft 187kts
24-Sep-19 17:02 33.969231 -118.083221 258 3990ft 173kts
24-Sep-19 17:03 33.962260 -118.142097 263 3994ft 179kts
24-Sep-19 17:04 33.956344 -118.198926 263 3105ft 170kts
24-Sep-19 17:05 33.950498 -118.255287 261 2200ft 169kts
24-Sep-19 17:06 33.944705 -118.311406 263 1309ft 167kts
24-Sep-19 17:07 33.939109 -118.365444 264 451ft 125kts
24-Sep-19 17:08 33.936708 -118.388763 261 106ft 45kts
24-Sep-19 17:09 33.934658 -118.396906 261 106ft 31kts
24-Sep-19 17:10 33.933237 -118.398457 268 106ft 0kts
24-Sep-19 17:11 33.933237 -118.398457 268 107ft 0kts
24-Sep-19 17:12 33.933237 -118.398457 268 106ft 0kts
24-Sep-19 17:13 33.933237 -118.398457 268 106ft 0kts
24-Sep-19 17:14 33.933237 -118.398457 268 106ft 0kts
24-Sep-19 17:15 33.933237 -118.398457 268 106ft 0kts
24-Sep-19 17:16 33.933237 -118.398457 268 106ft 0kts
24-Sep-19 17:17 33.933237 -118.398457 268 106ft 0kts

Navigation Log

Ident Type
Flight plan parsing failed, navigation log unavailable